createdAt,value
2018-08-16T00:00:37.602Z,1012.89
2018-08-16T00:01:37.619Z,1012.90
2018-08-16T00:02:37.644Z,1012.90
2018-08-16T00:03:37.667Z,1012.88
2018-08-16T00:04:37.691Z,1012.86
2018-08-16T00:05:37.717Z,1012.82
2018-08-16T00:06:37.741Z,1012.82
2018-08-16T00:07:37.762Z,1012.84
2018-08-16T00:08:37.786Z,1012.83
2018-08-16T00:09:37.810Z,1012.83
2018-08-16T00:10:37.836Z,1012.83
2018-08-16T00:11:37.859Z,1012.84
2018-08-16T00:12:37.879Z,1012.82
2018-08-16T00:13:37.904Z,1012.81
2018-08-16T00:14:37.929Z,1012.80
2018-08-16T00:15:37.951Z,1012.81
2018-08-16T00:16:37.975Z,1012.77
2018-08-16T00:17:37.998Z,1012.82
2018-08-16T00:18:38.026Z,1012.80
2018-08-16T00:19:38.047Z,1012.82
2018-08-16T00:20:38.068Z,1012.80
2018-08-16T00:21:38.095Z,1012.73
2018-08-16T00:22:38.119Z,1012.76
2018-08-16T00:23:38.139Z,1012.81
2018-08-16T00:24:38.162Z,1012.79
2018-08-16T00:25:38.188Z,1012.75
2018-08-16T00:26:38.212Z,1012.77
2018-08-16T00:27:38.233Z,1012.75
2018-08-16T00:28:38.257Z,1012.73
2018-08-16T00:29:38.279Z,1012.74
2018-08-16T00:30:38.303Z,1012.77
2018-08-16T00:31:38.326Z,1012.74
2018-08-16T00:32:38.352Z,1012.72
2018-08-16T00:33:38.377Z,1012.70
2018-08-16T00:34:38.396Z,1012.70
2018-08-16T00:35:38.421Z,1012.72
2018-08-16T00:36:38.442Z,1012.74
2018-08-16T00:37:38.466Z,1012.70
2018-08-16T00:38:38.491Z,1012.70
2018-08-16T00:39:38.515Z,1012.71
2018-08-16T00:40:38.542Z,1012.74
2018-08-16T00:41:38.563Z,1012.70
2018-08-16T00:42:38.586Z,1012.70
2018-08-16T00:43:38.609Z,1012.67
2018-08-16T00:44:38.629Z,1012.69
2018-08-16T00:45:38.664Z,1012.68
2018-08-16T00:46:38.676Z,1012.67
2018-08-16T00:47:38.702Z,1012.71
2018-08-16T00:48:38.725Z,1012.75
2018-08-16T00:49:38.749Z,1012.75
2018-08-16T00:50:38.771Z,1012.76
2018-08-16T00:51:38.798Z,1012.74
2018-08-16T00:52:38.817Z,1012.72
2018-08-16T00:53:38.839Z,1012.73
2018-08-16T00:54:38.866Z,1012.68
2018-08-16T00:55:38.886Z,1012.69
2018-08-16T00:56:38.910Z,1012.69
2018-08-16T00:57:38.936Z,1012.67
2018-08-16T00:58:38.955Z,1012.68
2018-08-16T00:59:38.983Z,1012.69
2018-08-16T01:00:39.003Z,1012.67
2018-08-16T01:01:39.028Z,1012.64
2018-08-16T01:02:39.051Z,1012.65
2018-08-16T01:03:39.072Z,1012.65
2018-08-16T01:04:39.097Z,1012.65
2018-08-16T01:05:39.120Z,1012.68
2018-08-16T01:06:39.144Z,1012.67
2018-08-16T01:07:39.167Z,1012.64
2018-08-16T01:08:39.186Z,1012.65
2018-08-16T01:09:39.215Z,1012.64
2018-08-16T01:10:39.234Z,1012.66
2018-08-16T01:11:39.260Z,1012.64
2018-08-16T01:12:39.279Z,1012.62
2018-08-16T01:13:39.304Z,1012.59
2018-08-16T01:14:39.325Z,1012.60
2018-08-16T01:15:39.349Z,1012.62
2018-08-16T01:16:39.374Z,1012.63
2018-08-16T01:17:39.395Z,1012.61
2018-08-16T01:18:39.418Z,1012.65
2018-08-16T01:19:39.444Z,1012.61
2018-08-16T01:20:39.468Z,1012.64
2018-08-16T01:21:39.491Z,1012.66
2018-08-16T01:22:39.514Z,1012.64
2018-08-16T01:23:39.537Z,1012.66
2018-08-16T01:24:39.557Z,1012.66
2018-08-16T01:25:39.581Z,1012.63
2018-08-16T01:26:39.604Z,1012.63
2018-08-16T01:27:39.635Z,1012.65
2018-08-16T01:28:39.651Z,1012.64
2018-08-16T01:29:39.675Z,1012.63
2018-08-16T01:30:39.697Z,1012.64
2018-08-16T01:31:39.721Z,1012.66
2018-08-16T01:32:39.740Z,1012.65
2018-08-16T01:33:39.766Z,1012.63
2018-08-16T01:34:39.790Z,1012.66
2018-08-16T01:35:39.909Z,1012.67
2018-08-16T01:36:39.834Z,1012.63
2018-08-16T01:37:39.858Z,1012.64
2018-08-16T01:38:39.879Z,1012.65
2018-08-16T01:39:39.905Z,1012.61
2018-08-16T01:40:39.927Z,1012.64
2018-08-16T01:41:39.949Z,1012.62
2018-08-16T01:42:39.970Z,1012.62
2018-08-16T01:43:39.995Z,1012.58
2018-08-16T01:44:40.016Z,1012.63
2018-08-16T01:45:40.042Z,1012.60
2018-08-16T01:46:40.064Z,1012.59
2018-08-16T01:47:40.093Z,1012.58
2018-08-16T01:48:40.111Z,1012.57
2018-08-16T01:49:40.131Z,1012.56
2018-08-16T01:50:40.156Z,1012.56
2018-08-16T01:51:40.181Z,1012.52
2018-08-16T01:52:40.201Z,1012.49
2018-08-16T01:53:40.223Z,1012.54
2018-08-16T01:54:40.248Z,1012.56
2018-08-16T01:55:40.271Z,1012.56
2018-08-16T01:56:40.291Z,1012.54
2018-08-16T01:57:40.314Z,1012.53
2018-08-16T01:58:40.339Z,1012.54
2018-08-16T01:59:40.363Z,1012.48
2018-08-16T02:00:40.383Z,1012.50
2018-08-16T02:01:40.406Z,1012.51
2018-08-16T02:02:40.431Z,1012.52
2018-08-16T02:03:40.456Z,1012.53
2018-08-16T02:04:40.480Z,1012.49
2018-08-16T02:05:40.500Z,1012.50
2018-08-16T02:06:40.523Z,1012.54
2018-08-16T02:07:40.546Z,1012.50
2018-08-16T02:08:40.568Z,1012.52
2018-08-16T02:09:40.589Z,1012.49
2018-08-16T02:10:40.614Z,1012.49
2018-08-16T02:11:40.637Z,1012.47
2018-08-16T02:12:40.658Z,1012.50
2018-08-16T02:13:40.687Z,1012.44
2018-08-16T02:14:40.704Z,1012.43
2018-08-16T02:15:40.728Z,1012.45
2018-08-16T02:16:40.951Z,1012.42
2018-08-16T02:17:40.776Z,1012.42
2018-08-16T02:18:40.796Z,1012.43
2018-08-16T02:19:41.119Z,1012.43
2018-08-16T02:20:40.839Z,1012.39
2018-08-16T02:21:40.862Z,1012.37
2018-08-16T02:22:41.135Z,1012.42
2018-08-16T02:23:40.909Z,1012.41
2018-08-16T02:24:40.932Z,1012.43
2018-08-16T02:25:41.106Z,1012.40
2018-08-16T02:26:40.978Z,1012.41
2018-08-16T02:27:41.002Z,1012.44
2018-08-16T02:28:41.023Z,1012.42
2018-08-16T02:29:41.044Z,1012.40
2018-08-16T02:30:41.067Z,1012.43
2018-08-16T02:31:41.093Z,1012.40
2018-08-16T02:32:41.112Z,1012.41
2018-08-16T02:33:41.206Z,1012.40
2018-08-16T02:34:41.161Z,1012.43
2018-08-16T02:35:41.183Z,1012.41
2018-08-16T02:36:41.204Z,1012.40
2018-08-16T02:37:41.227Z,1012.38
2018-08-16T02:38:41.250Z,1012.36
2018-08-16T02:39:41.270Z,1012.36
2018-08-16T02:40:41.292Z,1012.35
2018-08-16T02:41:41.314Z,1012.37
2018-08-16T02:42:41.337Z,1012.38
2018-08-16T02:43:41.361Z,1012.37
2018-08-16T02:44:41.381Z,1012.37
2018-08-16T02:45:41.404Z,1012.35
2018-08-16T02:46:41.426Z,1012.32
2018-08-16T02:47:41.453Z,1012.33
2018-08-16T02:48:41.471Z,1012.31
2018-08-16T02:49:41.496Z,1012.32
2018-08-16T02:50:41.518Z,1012.29
2018-08-16T02:51:41.542Z,1012.30
2018-08-16T02:52:41.563Z,1012.27
2018-08-16T02:53:41.594Z,1012.28
2018-08-16T02:54:41.607Z,1012.26
2018-08-16T02:55:41.631Z,1012.26
2018-08-16T02:56:41.650Z,1012.27
2018-08-16T02:57:41.674Z,1012.24
2018-08-16T02:58:41.696Z,1012.23
2018-08-16T02:59:41.717Z,1012.22
2018-08-16T03:00:41.741Z,1012.20
2018-08-16T03:01:41.761Z,1012.16
2018-08-16T03:02:41.787Z,1012.19
2018-08-16T03:03:41.810Z,1012.16
2018-08-16T03:04:41.827Z,1012.19
2018-08-16T03:05:41.853Z,1012.19
2018-08-16T03:06:41.879Z,1012.14
2018-08-16T03:07:41.898Z,1012.16
2018-08-16T03:08:41.916Z,1012.14
2018-08-16T03:09:41.940Z,1012.15
2018-08-16T03:10:41.961Z,1012.13
2018-08-16T03:11:41.982Z,1012.07
2018-08-16T03:12:42.010Z,1012.09
2018-08-16T03:13:42.034Z,1012.06
2018-08-16T03:14:42.053Z,1012.08
2018-08-16T03:15:42.073Z,1012.03
2018-08-16T03:16:42.093Z,1012.06
2018-08-16T03:17:42.117Z,1012.06
2018-08-16T03:18:42.140Z,1012.05
2018-08-16T03:19:42.161Z,1012.04
2018-08-16T03:20:42.182Z,1012.03
2018-08-16T03:21:42.205Z,1012.05
2018-08-16T03:22:42.230Z,1012.05
2018-08-16T03:23:42.252Z,1012.01
2018-08-16T03:24:42.271Z,1012.06
2018-08-16T03:25:42.296Z,1012.02
2018-08-16T03:26:42.319Z,1012.00
2018-08-16T03:27:42.341Z,1012.03
2018-08-16T03:28:42.360Z,1011.94
2018-08-16T03:29:42.381Z,1012.00
2018-08-16T03:30:42.404Z,1012.02
2018-08-16T03:31:42.437Z,1012.03
2018-08-16T03:32:42.450Z,1012.04
2018-08-16T03:33:42.470Z,1012.06
2018-08-16T03:34:42.500Z,1012.09
2018-08-16T03:35:42.521Z,1012.02
2018-08-16T03:36:42.536Z,1012.01
2018-08-16T03:37:42.558Z,1011.98
2018-08-16T03:38:42.582Z,1012.00
2018-08-16T03:39:42.609Z,1012.02
2018-08-16T03:40:42.625Z,1012.02
2018-08-16T03:41:42.650Z,1011.99
2018-08-16T03:42:42.670Z,1011.94
2018-08-16T03:43:42.693Z,1011.97
2018-08-16T03:44:42.717Z,1011.92
2018-08-16T03:45:42.738Z,1011.94
2018-08-16T03:46:42.763Z,1011.94
2018-08-16T03:47:42.781Z,1011.91
2018-08-16T03:48:42.806Z,1011.90
2018-08-16T03:49:42.827Z,1011.88
2018-08-16T03:50:42.850Z,1011.87
2018-08-16T03:51:42.872Z,1011.88
2018-08-16T03:52:42.894Z,1011.88
2018-08-16T03:53:42.914Z,1011.91
2018-08-16T03:54:42.937Z,1011.89
2018-08-16T03:55:42.962Z,1011.85
2018-08-16T03:56:42.983Z,1011.82
2018-08-16T03:57:43.002Z,1011.81
2018-08-16T03:58:43.026Z,1011.80
2018-08-16T03:59:43.046Z,1011.84
2018-08-16T04:00:43.071Z,1011.83
2018-08-16T04:01:43.093Z,1011.85
2018-08-16T04:02:43.116Z,1011.87
2018-08-16T04:03:43.135Z,1011.85
2018-08-16T04:04:43.157Z,1011.84
2018-08-16T04:05:43.179Z,1011.84
2018-08-16T04:06:43.203Z,1011.78
2018-08-16T04:07:43.226Z,1011.84
2018-08-16T04:08:43.246Z,1011.78
2018-08-16T04:09:43.271Z,1011.77
2018-08-16T04:10:43.289Z,1011.76
2018-08-16T04:11:43.313Z,1011.78
2018-08-16T04:12:43.333Z,1011.75
2018-08-16T04:13:43.355Z,1011.76
2018-08-16T04:14:43.379Z,1011.76
2018-08-16T04:15:43.399Z,1011.75
2018-08-16T04:16:44.522Z,1011.77
2018-08-16T04:17:43.441Z,1011.78
2018-08-16T04:18:43.467Z,1011.80
2018-08-16T04:19:43.493Z,1011.83
2018-08-16T04:20:43.609Z,1011.79
2018-08-16T04:21:43.530Z,1011.82
2018-08-16T04:22:43.551Z,1011.81
2018-08-16T04:23:43.580Z,1011.81
2018-08-16T04:24:43.596Z,1011.80
2018-08-16T04:25:43.620Z,1011.82
2018-08-16T04:26:43.641Z,1011.81
2018-08-16T04:27:43.672Z,1011.78
2018-08-16T04:28:43.685Z,1011.80
2018-08-16T04:29:43.706Z,1011.80
2018-08-16T04:30:43.729Z,1011.80
2018-08-16T04:31:43.748Z,1011.79
2018-08-16T04:32:43.772Z,1011.80
2018-08-16T04:33:43.793Z,1011.81
2018-08-16T04:34:43.813Z,1011.81
2018-08-16T04:35:43.837Z,1011.80
2018-08-16T04:36:43.856Z,1011.84
2018-08-16T04:37:43.881Z,1011.84
2018-08-16T04:38:43.904Z,1011.84
2018-08-16T04:39:43.924Z,1011.85
2018-08-16T04:40:43.947Z,1011.86
2018-08-16T04:41:44.148Z,1011.88
2018-08-16T04:42:43.988Z,1011.86
2018-08-16T04:43:44.009Z,1011.84
2018-08-16T04:44:44.031Z,1011.84
2018-08-16T04:45:44.053Z,1011.85
2018-08-16T04:46:44.074Z,1011.81
2018-08-16T04:47:44.097Z,1011.85
2018-08-16T04:48:44.119Z,1011.86
2018-08-16T04:49:44.139Z,1011.86
2018-08-16T04:50:44.162Z,1011.84
2018-08-16T04:51:44.185Z,1011.85
2018-08-16T04:52:44.208Z,1011.84
2018-08-16T04:53:44.228Z,1011.86
2018-08-16T04:54:44.251Z,1011.87
2018-08-16T04:55:44.271Z,1011.82
2018-08-16T04:56:44.312Z,1011.84
2018-08-16T04:57:44.318Z,1011.86
2018-08-16T04:58:44.338Z,1011.87
2018-08-16T04:59:44.360Z,1011.83
2018-08-16T05:00:44.381Z,1011.84
2018-08-16T05:01:44.408Z,1011.81
2018-08-16T05:02:44.453Z,1011.80
2018-08-16T05:03:44.451Z,1011.87
2018-08-16T05:04:44.467Z,1011.87
2018-08-16T05:05:44.489Z,1011.86
2018-08-16T05:06:44.516Z,1011.83
2018-08-16T05:07:44.536Z,1011.89
2018-08-16T05:08:44.557Z,1011.87
2018-08-16T05:09:44.577Z,1011.86
2018-08-16T05:10:44.600Z,1011.87
2018-08-16T05:11:44.629Z,1011.90
2018-08-16T05:12:44.646Z,1011.89
2018-08-16T05:13:44.668Z,1011.89
2018-08-16T05:14:44.688Z,1011.90
2018-08-16T05:15:44.709Z,1011.88
2018-08-16T05:16:44.735Z,1011.90
2018-08-16T05:17:44.757Z,1011.93
2018-08-16T05:18:44.777Z,1011.94
2018-08-16T05:19:44.801Z,1011.91
2018-08-16T05:20:44.820Z,1011.94
2018-08-16T05:21:44.847Z,1011.93
2018-08-16T05:22:44.864Z,1011.92
2018-08-16T05:23:44.894Z,1011.97
2018-08-16T05:24:44.911Z,1011.97
2018-08-16T05:25:44.931Z,1011.97
2018-08-16T05:26:44.953Z,1011.98
2018-08-16T05:27:44.975Z,1011.97
2018-08-16T05:28:45.000Z,1011.95
2018-08-16T05:29:45.021Z,1011.95
2018-08-16T05:30:45.043Z,1011.94
2018-08-16T05:31:45.120Z,1011.96
2018-08-16T05:32:45.090Z,1011.93
2018-08-16T05:33:45.111Z,1011.91
2018-08-16T05:34:45.134Z,1011.93
2018-08-16T05:35:45.156Z,1011.88
2018-08-16T05:36:45.176Z,1011.89
2018-08-16T05:37:45.199Z,1011.89
2018-08-16T05:38:45.225Z,1011.89
2018-08-16T05:39:45.249Z,1011.89
2018-08-16T05:40:45.266Z,1011.87
2018-08-16T05:41:45.292Z,1011.84
2018-08-16T05:42:45.313Z,1011.86
2018-08-16T05:43:45.336Z,1011.84
2018-08-16T05:44:45.358Z,1011.84
2018-08-16T05:45:45.382Z,1011.83
2018-08-16T05:46:45.404Z,1011.85
2018-08-16T05:47:45.430Z,1011.83
2018-08-16T05:48:45.453Z,1011.86
2018-08-16T05:49:45.475Z,1011.82
2018-08-16T05:50:45.559Z,1011.80
2018-08-16T05:51:45.522Z,1011.78
2018-08-16T05:52:45.545Z,1011.81
2018-08-16T05:53:45.567Z,1011.78
2018-08-16T05:54:45.591Z,1011.80
2018-08-16T05:55:45.614Z,1011.80
2018-08-16T05:56:45.637Z,1011.75
2018-08-16T05:57:45.660Z,1011.79
2018-08-16T05:58:45.683Z,1011.79
2018-08-16T05:59:45.705Z,1011.82
2018-08-16T06:00:45.730Z,1011.82
2018-08-16T06:01:45.750Z,1011.84
2018-08-16T06:02:45.775Z,1011.84
2018-08-16T06:03:45.799Z,1011.88
2018-08-16T06:04:45.819Z,1011.89
2018-08-16T06:05:45.844Z,1011.87
2018-08-16T06:06:45.867Z,1011.89
2018-08-16T06:07:45.895Z,1011.88
2018-08-16T06:08:45.916Z,1011.91
2018-08-16T06:09:45.939Z,1011.87
2018-08-16T06:10:45.964Z,1011.88
2018-08-16T06:11:45.986Z,1011.89
2018-08-16T06:12:46.007Z,1011.87
2018-08-16T06:13:46.029Z,1011.81
2018-08-16T06:14:46.055Z,1011.82
2018-08-16T06:15:46.076Z,1011.79
2018-08-16T06:16:46.102Z,1011.79
2018-08-16T06:17:46.124Z,1011.79
2018-08-16T06:18:46.148Z,1011.78
2018-08-16T06:19:46.172Z,1011.78
2018-08-16T06:20:46.194Z,1011.80
2018-08-16T06:21:46.218Z,1011.77
2018-08-16T06:22:46.241Z,1011.80
2018-08-16T06:23:46.265Z,1011.79
2018-08-16T06:24:46.287Z,1011.78
2018-08-16T06:25:46.311Z,1011.80
2018-08-16T06:26:46.334Z,1011.80
2018-08-16T06:27:46.355Z,1011.82
2018-08-16T06:28:46.378Z,1011.80
2018-08-16T06:29:46.401Z,1011.83
2018-08-16T06:30:46.424Z,1011.84
2018-08-16T06:31:46.515Z,1011.83
2018-08-16T06:32:46.472Z,1011.85
2018-08-16T06:33:46.495Z,1011.85
2018-08-16T06:34:46.521Z,1011.84
2018-08-16T06:35:46.543Z,1011.83
2018-08-16T06:36:46.564Z,1011.87
2018-08-16T06:37:46.588Z,1011.86
2018-08-16T06:38:46.646Z,1011.85
2018-08-16T06:39:46.639Z,1011.88
2018-08-16T06:40:46.662Z,1011.89
2018-08-16T06:41:46.683Z,1011.90
2018-08-16T06:42:46.708Z,1011.87
2018-08-16T06:43:46.734Z,1011.86
2018-08-16T06:44:46.760Z,1011.88
2018-08-16T06:45:46.782Z,1011.85
2018-08-16T06:46:46.803Z,1011.83
2018-08-16T06:47:46.826Z,1011.81
2018-08-16T06:48:46.853Z,1011.83
2018-08-16T06:49:46.874Z,1011.82
2018-08-16T06:50:46.899Z,1011.79
2018-08-16T06:51:46.924Z,1011.79
2018-08-16T06:52:46.950Z,1011.76
2018-08-16T06:53:46.975Z,1011.77
2018-08-16T06:54:46.999Z,1011.74
2018-08-16T06:55:47.021Z,1011.74
2018-08-16T06:56:47.049Z,1011.76
2018-08-16T06:57:47.070Z,1011.74
2018-08-16T06:58:47.094Z,1011.74
2018-08-16T06:59:47.121Z,1011.72
2018-08-16T07:00:47.142Z,1011.68
2018-08-16T07:01:47.167Z,1011.69
2018-08-16T07:02:47.192Z,1011.68
2018-08-16T07:03:47.219Z,1011.70
2018-08-16T07:04:47.289Z,1011.68
2018-08-16T07:05:47.269Z,1011.67
2018-08-16T07:06:47.294Z,1011.66
2018-08-16T07:07:47.320Z,1011.68
2018-08-16T07:08:47.341Z,1011.65
2018-08-16T07:09:47.369Z,1011.65
2018-08-16T07:10:47.395Z,1011.65
2018-08-16T07:11:47.418Z,1011.63
2018-08-16T07:12:47.443Z,1011.64
2018-08-16T07:13:47.465Z,1011.65
2018-08-16T07:14:47.494Z,1011.64
2018-08-16T07:15:47.515Z,1011.72
2018-08-16T07:16:47.540Z,1011.64
2018-08-16T07:17:47.567Z,1011.72
2018-08-16T07:18:47.646Z,1011.67
2018-08-16T07:19:47.616Z,1011.65
2018-08-16T07:20:47.658Z,1011.60
2018-08-16T07:21:51.126Z,1011.65
2018-08-16T07:22:47.689Z,1011.66
2018-08-16T07:23:47.715Z,1011.64
2018-08-16T07:24:47.749Z,1011.63
2018-08-16T07:25:47.762Z,1011.61
2018-08-16T07:26:47.787Z,1011.55
2018-08-16T07:27:47.815Z,1011.59
2018-08-16T07:28:47.838Z,1011.62
2018-08-16T07:29:47.902Z,1011.65
2018-08-16T07:30:47.892Z,1011.62
2018-08-16T07:31:47.915Z,1011.64
2018-08-16T07:32:47.939Z,1011.59
2018-08-16T07:33:47.964Z,1011.59
2018-08-16T07:34:47.989Z,1011.58
2018-08-16T07:35:48.014Z,1011.55
2018-08-16T07:36:48.034Z,1011.57
2018-08-16T07:37:48.065Z,1011.58
2018-08-16T07:38:48.086Z,1011.57
2018-08-16T07:39:48.114Z,1011.52
2018-08-16T07:40:48.134Z,1011.54
2018-08-16T07:41:48.161Z,1011.54
2018-08-16T07:42:48.185Z,1011.51
2018-08-16T07:43:48.261Z,1011.51
2018-08-16T07:44:48.237Z,1011.51
2018-08-16T07:45:48.381Z,1011.51
2018-08-16T07:46:48.286Z,1011.46
2018-08-16T07:47:48.313Z,1011.43
2018-08-16T07:48:48.347Z,1011.42
2018-08-16T07:49:48.363Z,1011.43
2018-08-16T07:50:48.386Z,1011.43
2018-08-16T07:51:48.485Z,1011.45
2018-08-16T07:52:48.436Z,1011.43
2018-08-16T07:53:48.464Z,1011.45
2018-08-16T07:54:48.490Z,1011.39
2018-08-16T07:55:48.536Z,1011.42
2018-08-16T07:56:48.540Z,1011.42
2018-08-16T07:57:48.562Z,1011.47
2018-08-16T07:58:48.588Z,1011.46
2018-08-16T07:59:48.615Z,1011.46
2018-08-16T08:00:48.641Z,1011.45
2018-08-16T08:01:48.664Z,1011.47
2018-08-16T08:02:48.692Z,1011.44
2018-08-16T08:03:48.716Z,1011.43
2018-08-16T08:04:48.740Z,1011.41
2018-08-16T08:05:48.765Z,1011.45
2018-08-16T08:06:48.794Z,1011.43
2018-08-16T08:07:48.822Z,1011.46
2018-08-16T08:08:48.858Z,1011.42
2018-08-16T08:09:48.974Z,1011.44
2018-08-16T08:10:48.943Z,1011.52
2018-08-16T08:11:48.920Z,1011.48
2018-08-16T08:12:48.998Z,1011.51
2018-08-16T08:13:48.969Z,1011.46
2018-08-16T08:14:48.997Z,1011.45
2018-08-16T08:15:49.025Z,1011.44
2018-08-16T08:16:49.048Z,1011.43
2018-08-16T08:17:49.072Z,1011.44
2018-08-16T08:18:49.098Z,1011.42
2018-08-16T08:19:49.124Z,1011.43
2018-08-16T08:20:49.148Z,1011.43
2018-08-16T08:21:49.173Z,1011.37
2018-08-16T08:22:49.201Z,1011.35
2018-08-16T08:23:49.277Z,1011.34
2018-08-16T08:24:49.260Z,1011.35
2018-08-16T08:25:49.279Z,1011.42
2018-08-16T08:26:49.303Z,1011.34
2018-08-16T08:27:49.327Z,1011.37
2018-08-16T08:28:49.353Z,1011.41
2018-08-16T08:29:49.477Z,1011.44
2018-08-16T08:30:49.413Z,1011.36
2018-08-16T08:31:49.431Z,1011.40
2018-08-16T08:32:49.457Z,1011.35
2018-08-16T08:33:49.483Z,1011.35
2018-08-16T08:34:49.510Z,1011.32
2018-08-16T08:35:49.533Z,1011.30
2018-08-16T08:36:49.560Z,1011.29
2018-08-16T08:37:49.584Z,1011.31
2018-08-16T08:38:49.664Z,1011.32
2018-08-16T08:39:49.635Z,1011.33
2018-08-16T08:40:49.660Z,1011.28
2018-08-16T08:41:49.736Z,1011.27
2018-08-16T08:42:49.718Z,1011.33
2018-08-16T08:43:49.740Z,1011.30
2018-08-16T08:44:49.767Z,1011.31
2018-08-16T08:45:49.790Z,1011.33
2018-08-16T08:46:49.818Z,1011.28
2018-08-16T08:47:49.846Z,1011.21
2018-08-16T08:48:49.868Z,1011.22
2018-08-16T08:49:49.895Z,1011.20
2018-08-16T08:50:49.926Z,1011.19
2018-08-16T08:51:49.948Z,1011.28
2018-08-16T08:52:49.975Z,1011.27
2018-08-16T08:53:50.002Z,1011.31
2018-08-16T08:54:50.031Z,1011.24
2018-08-16T08:55:50.055Z,1011.26
2018-08-16T08:56:50.080Z,1011.22
2018-08-16T08:57:50.105Z,1011.27
2018-08-16T08:58:50.181Z,1011.26
2018-08-16T08:59:50.159Z,1011.25
2018-08-16T09:00:50.186Z,1011.20
2018-08-16T09:01:50.209Z,1011.17
2018-08-16T09:02:50.236Z,1011.15
2018-08-16T09:03:50.271Z,1011.22
2018-08-16T09:04:50.288Z,1011.18
2018-08-16T09:05:50.315Z,1011.17
2018-08-16T09:06:50.362Z,1011.14
2018-08-16T09:07:50.372Z,1011.14
2018-08-16T09:08:50.395Z,1011.16
2018-08-16T09:09:50.423Z,1011.18
2018-08-16T09:10:50.448Z,1011.15
2018-08-16T09:11:50.475Z,1011.12
2018-08-16T09:12:50.505Z,1011.10
2018-08-16T09:13:50.530Z,1011.09
2018-08-16T09:14:50.578Z,1011.04
2018-08-16T09:15:50.583Z,1011.07
2018-08-16T09:16:50.607Z,1011.03
2018-08-16T09:17:50.632Z,1011.10
2018-08-16T09:18:50.661Z,1011.10
2018-08-16T09:19:50.689Z,1011.09
2018-08-16T09:20:50.714Z,1011.05
2018-08-16T09:21:50.739Z,1011.05
2018-08-16T09:22:50.769Z,1011.03
2018-08-16T09:23:50.794Z,1011.00
2018-08-16T09:24:50.817Z,1010.97
2018-08-16T09:25:50.845Z,1010.98
2018-08-16T09:26:50.872Z,1011.01
2018-08-16T09:27:50.898Z,1011.00
2018-08-16T09:28:50.933Z,1011.00
2018-08-16T09:29:50.955Z,1010.98
2018-08-16T09:30:50.978Z,1011.05
2018-08-16T09:31:51.007Z,1011.04
2018-08-16T09:32:51.032Z,1011.00
2018-08-16T09:33:51.056Z,1011.00
2018-08-16T09:34:51.085Z,1010.94
2018-08-16T09:35:51.109Z,1010.97
2018-08-16T09:36:51.136Z,1010.96
2018-08-16T09:37:51.161Z,1010.98
2018-08-16T09:38:51.193Z,1010.96
2018-08-16T09:39:51.327Z,1010.98
2018-08-16T09:40:51.242Z,1010.89
2018-08-16T09:41:51.301Z,1010.88
2018-08-16T09:42:51.297Z,1010.84
2018-08-16T09:43:51.321Z,1010.87
2018-08-16T09:44:51.349Z,1010.88
2018-08-16T09:45:51.377Z,1010.89
2018-08-16T09:46:51.401Z,1010.96
2018-08-16T09:47:51.431Z,1010.92
2018-08-16T09:48:51.456Z,1010.93
2018-08-16T09:49:51.481Z,1010.89
2018-08-16T09:50:51.510Z,1010.91
2018-08-16T09:51:51.537Z,1010.89
2018-08-16T09:52:51.563Z,1010.90
2018-08-16T09:53:51.588Z,1010.85
2018-08-16T09:54:51.614Z,1010.87
2018-08-16T09:55:51.642Z,1010.84
2018-08-16T09:56:51.668Z,1010.82
2018-08-16T09:57:51.696Z,1010.77
2018-08-16T09:58:51.723Z,1010.79
2018-08-16T09:59:51.749Z,1010.78
2018-08-16T10:00:51.777Z,1010.77
2018-08-16T10:01:51.803Z,1010.76
2018-08-16T10:02:51.832Z,1010.76
2018-08-16T10:03:51.860Z,1010.74
2018-08-16T10:04:51.883Z,1010.74
2018-08-16T10:05:51.913Z,1010.76
2018-08-16T10:06:51.940Z,1010.72
2018-08-16T10:07:51.964Z,1010.71
2018-08-16T10:08:51.991Z,1010.68
2018-08-16T10:09:52.017Z,1010.70
2018-08-16T10:10:52.044Z,1010.63
2018-08-16T10:11:52.075Z,1010.63
2018-08-16T10:12:52.101Z,1010.64
2018-08-16T10:13:52.124Z,1010.64
2018-08-16T10:14:52.151Z,1010.61
2018-08-16T10:15:52.182Z,1010.59
2018-08-16T10:16:52.204Z,1010.61
2018-08-16T10:17:52.236Z,1010.59
2018-08-16T10:18:52.262Z,1010.57
2018-08-16T10:19:52.289Z,1010.56
2018-08-16T10:20:52.318Z,1010.59
2018-08-16T10:21:52.342Z,1010.56
2018-08-16T10:22:52.369Z,1010.51
2018-08-16T10:23:52.396Z,1010.50
2018-08-16T10:24:52.659Z,1010.54
2018-08-16T10:25:52.450Z,1010.51
2018-08-16T10:26:52.540Z,1010.47
2018-08-16T10:27:52.505Z,1010.56
2018-08-16T10:28:52.528Z,1010.55
2018-08-16T10:29:52.556Z,1010.50
2018-08-16T10:30:52.586Z,1010.55
2018-08-16T10:31:52.612Z,1010.53
2018-08-16T10:32:52.635Z,1010.55
2018-08-16T10:33:52.665Z,1010.53
2018-08-16T10:34:52.690Z,1010.57
2018-08-16T10:35:52.718Z,1010.51
2018-08-16T10:36:52.746Z,1010.47
2018-08-16T10:37:52.772Z,1010.42
2018-08-16T10:38:52.801Z,1010.47
2018-08-16T10:39:52.834Z,1010.45
2018-08-16T10:40:52.852Z,1010.41
2018-08-16T10:41:52.885Z,1010.42
2018-08-16T10:42:52.910Z,1010.35
2018-08-16T10:43:52.933Z,1010.43
2018-08-16T10:44:52.961Z,1010.36
2018-08-16T10:45:52.987Z,1010.31
2018-08-16T10:46:53.015Z,1010.37
2018-08-16T10:47:53.048Z,1010.36
2018-08-16T10:48:53.069Z,1010.32
2018-08-16T10:49:53.099Z,1010.35
2018-08-16T10:50:53.127Z,1010.38
2018-08-16T10:51:53.152Z,1010.37
2018-08-16T10:52:53.177Z,1010.37
2018-08-16T10:53:53.206Z,1010.42
2018-08-16T10:54:53.236Z,1010.38
2018-08-16T10:55:53.660Z,1010.35
2018-08-16T10:56:53.288Z,1010.36
2018-08-16T10:57:53.325Z,1010.36
2018-08-16T10:58:53.344Z,1010.35
2018-08-16T10:59:53.368Z,1010.33
2018-08-16T11:00:53.395Z,1010.33
2018-08-16T11:01:53.426Z,1010.34
2018-08-16T11:02:53.451Z,1010.24
2018-08-16T11:03:53.479Z,1010.32
2018-08-16T11:04:53.508Z,1010.27
2018-08-16T11:05:53.533Z,1010.27
2018-08-16T11:06:53.560Z,1010.29
2018-08-16T11:07:53.589Z,1010.27
2018-08-16T11:08:53.615Z,1010.21
2018-08-16T11:09:53.643Z,1010.24
2018-08-16T11:10:53.668Z,1010.22
2018-08-16T11:11:53.695Z,1010.26
2018-08-16T11:12:53.726Z,1010.27
2018-08-16T11:13:53.749Z,1010.24
2018-08-16T11:14:54.181Z,1010.15
2018-08-16T11:15:53.806Z,1010.14
2018-08-16T11:16:53.830Z,1010.13
2018-08-16T11:17:53.857Z,1010.19
2018-08-16T11:18:53.941Z,1010.13
2018-08-16T11:19:53.913Z,1010.12
2018-08-16T11:20:53.938Z,1010.24
2018-08-16T11:21:53.969Z,1010.20
2018-08-16T11:22:54.095Z,1010.16
2018-08-16T11:23:54.021Z,1010.18
2018-08-16T11:24:54.051Z,1010.19
2018-08-16T11:25:54.090Z,1010.14
2018-08-16T11:26:54.104Z,1010.17
2018-08-16T11:27:54.133Z,1010.12
2018-08-16T11:28:54.157Z,1010.11
2018-08-16T11:29:54.187Z,1010.12
2018-08-16T11:30:54.217Z,1010.12
2018-08-16T11:31:54.243Z,1010.11
2018-08-16T11:32:54.270Z,1010.10
2018-08-16T11:33:54.295Z,1010.10
2018-08-16T11:34:54.354Z,1010.07
2018-08-16T11:35:54.353Z,1010.03
2018-08-16T11:36:54.579Z,1010.07
2018-08-16T11:37:54.454Z,1010.07
2018-08-16T11:38:54.433Z,1010.07
2018-08-16T11:39:54.461Z,1010.10
2018-08-16T11:40:54.490Z,1010.09
2018-08-16T11:41:54.516Z,1010.09
2018-08-16T11:42:54.544Z,1010.08
2018-08-16T11:43:54.573Z,1010.10
2018-08-16T11:44:54.600Z,1010.08
2018-08-16T11:45:54.629Z,1010.02
2018-08-16T11:46:54.653Z,1010.05
2018-08-16T11:47:54.680Z,1010.07
2018-08-16T11:48:54.707Z,1010.03
2018-08-16T11:49:54.735Z,1010.03
2018-08-16T11:50:54.762Z,1009.98
2018-08-16T11:51:54.795Z,1009.97
2018-08-16T11:52:54.817Z,1010.03
2018-08-16T11:53:54.848Z,1010.00
2018-08-16T11:54:54.874Z,1009.91
2018-08-16T11:55:54.900Z,1009.89
2018-08-16T11:56:54.929Z,1009.94
2018-08-16T11:57:54.958Z,1009.88
2018-08-16T11:58:54.986Z,1009.92
2018-08-16T11:59:56.363Z,1009.86
2018-08-16T12:00:55.040Z,1009.83
2018-08-16T12:01:55.065Z,1009.82
2018-08-16T12:02:55.097Z,1009.78
2018-08-16T12:03:55.121Z,1009.79
2018-08-16T12:04:55.151Z,1009.83
2018-08-16T12:05:55.178Z,1009.76